createdAt,value
2022-11-05T00:00:17.997Z,43.40
2022-11-05T00:03:08.926Z,46.50
2022-11-05T00:06:00.505Z,48.20
2022-11-05T00:08:50.947Z,44.85
2022-11-05T00:11:45.926Z,44.42
2022-11-05T00:14:45.111Z,50.55
2022-11-05T00:17:18.536Z,46.83
2022-11-05T00:19:51.809Z,52.17
2022-11-05T00:22:42.976Z,51.55
2022-11-05T00:25:17.860Z,51.80
2022-11-05T00:27:54.684Z,50.70
2022-11-05T00:30:28.166Z,40.10
2022-11-05T00:33:03.426Z,47.72
2022-11-05T00:35:36.650Z,47.67
2022-11-05T00:38:10.310Z,40.92
2022-11-05T00:40:43.581Z,39.10
2022-11-05T00:43:35.481Z,42.13
2022-11-05T00:46:08.776Z,45.53
2022-11-05T00:49:00.083Z,53.58
2022-11-05T00:51:33.376Z,44.03
2022-11-05T00:54:06.871Z,43.15
2022-11-05T00:56:40.214Z,50.88
2022-11-05T00:59:15.184Z,39.22
2022-11-05T01:01:48.467Z,44.13
2022-11-05T01:04:22.156Z,46.60
2022-11-05T01:06:56.471Z,45.55
2022-11-05T01:09:30.086Z,38.85
2022-11-05T01:12:03.329Z,40.40
2022-11-05T01:14:38.296Z,37.42
2022-11-05T01:17:11.519Z,36.53
2022-11-05T01:19:45.006Z,38.22
2022-11-05T01:22:18.435Z,37.58
2022-11-05T01:24:51.851Z,35.53
2022-11-05T01:27:25.455Z,24.00
2022-11-05T01:30:00.133Z,31.35
2022-11-05T01:32:33.575Z,24.90
2022-11-05T01:35:07.946Z,26.58
2022-11-05T01:37:41.934Z,25.33
2022-11-05T01:40:16.891Z,29.27
2022-11-05T01:42:50.318Z,26.05
2022-11-05T01:45:26.660Z,33.75
2022-11-05T01:48:04.407Z,28.42
2022-11-05T01:50:43.508Z,26.58
2022-11-05T01:53:22.198Z,34.85
2022-11-05T01:56:02.101Z,29.75
2022-11-05T01:58:39.187Z,33.50
2022-11-05T02:01:14.382Z,27.52
2022-11-05T02:03:49.733Z,27.60
2022-11-05T02:06:23.311Z,29.92
2022-11-05T02:09:01.128Z,37.38
2022-11-05T02:11:35.029Z,25.80
2022-11-05T02:14:08.371Z,24.90
2022-11-05T02:16:49.271Z,28.48
2022-11-05T02:20:03.111Z,25.13
2022-11-05T02:22:58.700Z,27.45
2022-11-05T02:26:00.436Z,28.35
2022-11-05T02:28:54.628Z,22.83
2022-11-05T02:31:37.309Z,33.28
2022-11-05T02:34:15.708Z,19.77
2022-11-05T02:36:54.835Z,22.25
2022-11-05T02:39:39.174Z,25.25
2022-11-05T02:42:19.099Z,21.05
2022-11-05T02:45:02.657Z,21.52
2022-11-05T02:47:43.273Z,23.08
2022-11-05T02:50:24.806Z,22.45
2022-11-05T02:53:02.816Z,18.13
2022-11-05T02:55:41.292Z,21.98
2022-11-05T02:58:14.903Z,20.23
2022-11-05T03:00:51.696Z,20.77
2022-11-05T03:03:35.481Z,18.88
2022-11-05T03:06:49.595Z,23.42
2022-11-05T03:09:36.768Z,20.30
2022-11-05T03:12:22.505Z,19.65
2022-11-05T03:15:03.796Z,19.95
2022-11-05T03:17:45.278Z,19.55
2022-11-05T03:20:24.929Z,21.48
2022-11-05T03:23:10.680Z,25.60
2022-11-05T03:25:47.870Z,16.85
2022-11-05T03:28:25.359Z,20.02
2022-11-05T03:31:00.131Z,20.75
2022-11-05T03:33:35.681Z,21.60
2022-11-05T03:36:17.473Z,21.27
2022-11-05T03:38:54.039Z,22.88
2022-11-05T03:41:29.018Z,20.15
2022-11-05T03:44:07.670Z,22.45
2022-11-05T03:46:45.314Z,20.77
2022-11-05T03:49:22.639Z,17.52
2022-11-05T03:52:02.757Z,17.83
2022-11-05T03:54:37.025Z,19.10
2022-11-05T03:57:14.271Z,18.08
2022-11-05T03:59:49.621Z,18.67
2022-11-05T04:02:26.005Z,15.23
2022-11-05T04:04:59.456Z,16.65
2022-11-05T04:07:51.565Z,25.58
2022-11-05T04:10:42.083Z,20.25
2022-11-05T04:13:27.867Z,21.77
2022-11-05T04:16:18.891Z,21.58
2022-11-05T04:18:52.136Z,20.40
2022-11-05T04:21:43.175Z,32.33
2022-11-05T04:24:17.776Z,20.13
2022-11-05T04:26:51.334Z,16.17
2022-11-05T04:29:42.017Z,18.15
2022-11-05T04:32:15.414Z,18.05
2022-11-05T04:34:48.677Z,21.55
2022-11-05T04:37:22.375Z,20.88
2022-11-05T04:39:57.147Z,17.60
2022-11-05T04:42:30.480Z,20.38
2022-11-05T04:45:03.968Z,17.05
2022-11-05T04:47:37.225Z,21.23
2022-11-05T04:50:12.374Z,21.40
2022-11-05T04:52:45.604Z,19.15
2022-11-05T04:55:20.803Z,24.50
2022-11-05T04:57:55.343Z,22.40
2022-11-05T05:00:28.656Z,20.90
2022-11-05T05:03:02.303Z,24.30
2022-11-05T05:05:35.570Z,25.95
2022-11-05T05:08:08.853Z,23.75
2022-11-05T05:10:43.640Z,19.20
2022-11-05T05:13:17.072Z,17.25
2022-11-05T05:15:50.292Z,27.98
2022-11-05T05:18:25.414Z,20.02
2022-11-05T05:21:16.464Z,15.75
2022-11-05T05:23:49.916Z,17.25
2022-11-05T05:26:24.906Z,19.88
2022-11-05T05:28:58.339Z,18.48
2022-11-05T05:31:31.933Z,18.23
2022-11-05T05:34:06.007Z,20.17
2022-11-05T05:36:39.288Z,19.08
2022-11-05T05:39:12.716Z,18.80
2022-11-05T05:41:47.332Z,20.42
2022-11-05T05:44:20.880Z,20.55
2022-11-05T05:46:55.740Z,17.17
2022-11-05T05:49:29.165Z,19.23
2022-11-05T05:52:02.575Z,18.25
2022-11-05T05:54:42.267Z,18.90
2022-11-05T05:57:17.472Z,22.13
2022-11-05T05:59:50.983Z,19.42
2022-11-05T06:02:24.404Z,19.10
2022-11-05T06:04:57.955Z,21.85
2022-11-05T06:07:36.043Z,19.67
2022-11-05T06:10:11.048Z,22.13
2022-11-05T06:12:45.839Z,21.40
2022-11-05T06:15:19.094Z,16.95
2022-11-05T06:17:52.516Z,19.58
2022-11-05T06:20:25.786Z,24.63
2022-11-05T06:22:59.465Z,20.75
2022-11-05T06:25:35.998Z,20.05
2022-11-05T06:28:14.796Z,22.35
2022-11-05T06:30:51.745Z,22.58
2022-11-05T06:33:25.264Z,22.35
2022-11-05T06:36:00.018Z,19.92
2022-11-05T06:38:35.062Z,19.77
2022-11-05T06:41:10.486Z,25.17
2022-11-05T06:43:45.512Z,23.70
2022-11-05T06:46:18.790Z,20.23
2022-11-05T06:48:52.087Z,22.02
2022-11-05T06:51:25.628Z,24.55
2022-11-05T06:53:59.079Z,35.20
2022-11-05T06:56:32.465Z,16.23
2022-11-05T06:59:08.580Z,21.20
2022-11-05T07:01:42.029Z,24.80
2022-11-05T07:04:15.475Z,23.48
2022-11-05T07:06:48.899Z,27.48
2022-11-05T07:09:22.211Z,30.25
2022-11-05T07:11:55.886Z,29.95
2022-11-05T07:14:30.696Z,30.25
2022-11-05T07:17:04.119Z,35.00
2022-11-05T07:19:37.409Z,21.50
2022-11-05T07:22:10.721Z,22.33
2022-11-05T07:24:47.191Z,22.98
2022-11-05T07:27:20.497Z,27.58
2022-11-05T07:29:55.234Z,19.33
2022-11-05T07:32:28.585Z,19.13
2022-11-05T07:35:03.405Z,22.50
2022-11-05T07:37:43.940Z,19.95
2022-11-05T07:40:19.306Z,22.27
2022-11-05T07:42:54.662Z,17.42
2022-11-05T07:45:31.355Z,15.07
2022-11-05T07:48:06.153Z,15.48
2022-11-05T07:50:39.825Z,17.23
2022-11-05T07:53:14.771Z,15.75
2022-11-05T07:55:48.249Z,22.27
2022-11-05T07:58:21.550Z,20.48
2022-11-05T08:00:57.840Z,21.60
2022-11-05T08:03:31.708Z,10.80
2022-11-05T08:06:05.438Z,4.25
2022-11-05T08:08:38.719Z,4.50
2022-11-05T08:11:13.074Z,5.35
2022-11-05T08:13:46.503Z,6.78
2022-11-05T08:16:21.130Z,3.05
2022-11-05T08:18:54.395Z,5.82
2022-11-05T08:21:27.675Z,3.38
2022-11-05T08:24:00.964Z,2.10
2022-11-05T08:26:34.418Z,1.35
2022-11-05T08:29:07.683Z,2.38
2022-11-05T08:31:42.470Z,1.92
2022-11-05T08:34:15.892Z,2.60
2022-11-05T08:36:49.115Z,2.40
2022-11-05T08:39:22.374Z,4.28
2022-11-05T08:41:55.736Z,2.60
2022-11-05T08:44:29.759Z,1.40
2022-11-05T08:47:04.450Z,1.95
2022-11-05T08:49:37.685Z,2.22
2022-11-05T08:52:10.955Z,1.17
2022-11-05T08:54:44.588Z,1.88
2022-11-05T08:57:17.824Z,2.67
2022-11-05T08:59:51.076Z,1.30
2022-11-05T09:02:25.836Z,1.90
2022-11-05T09:04:59.215Z,4.05
2022-11-05T09:07:35.465Z,2.05
2022-11-05T09:10:09.297Z,1.30
2022-11-05T09:12:42.769Z,4.30
2022-11-05T09:15:16.100Z,4.10
2022-11-05T09:17:50.782Z,3.75
2022-11-05T09:20:24.568Z,1.52
2022-11-05T09:22:57.909Z,2.70
2022-11-05T09:25:31.649Z,3.28
2022-11-05T09:28:13.420Z,1.25
2022-11-05T09:30:51.543Z,2.33
2022-11-05T09:33:28.096Z,3.45
2022-11-05T09:36:01.716Z,3.90
2022-11-05T09:38:35.978Z,5.60
2022-11-05T09:41:14.166Z,6.38
2022-11-05T09:43:52.052Z,3.05
2022-11-05T09:46:27.546Z,2.85
2022-11-05T09:49:06.311Z,6.28
2022-11-05T09:51:42.019Z,3.65
2022-11-05T09:54:16.694Z,3.72
2022-11-05T09:56:50.193Z,4.07
2022-11-05T09:59:27.201Z,3.17
2022-11-05T10:02:12.485Z,4.18
2022-11-05T10:04:51.546Z,5.93
2022-11-05T10:07:27.854Z,5.88
2022-11-05T10:10:04.384Z,5.55
2022-11-05T10:12:42.516Z,2.67
2022-11-05T10:15:22.041Z,4.55
2022-11-05T10:17:59.202Z,1.92
2022-11-05T10:20:36.981Z,4.78
2022-11-05T10:23:14.397Z,8.02
2022-11-05T10:25:51.597Z,7.28
2022-11-05T10:28:27.461Z,4.57
2022-11-05T10:31:02.600Z,3.42
2022-11-05T10:33:40.835Z,4.28
2022-11-05T10:36:22.013Z,7.43
2022-11-05T10:38:58.135Z,7.18
2022-11-05T10:41:50.544Z,5.53
2022-11-05T10:44:33.227Z,10.55
2022-11-05T10:47:25.726Z,6.00
2022-11-05T10:50:00.935Z,7.47
2022-11-05T10:52:37.567Z,3.95
2022-11-05T10:55:17.825Z,5.03
2022-11-05T10:57:51.465Z,36.33
2022-11-05T11:00:31.876Z,10.80
2022-11-05T11:03:06.806Z,5.93
2022-11-05T11:05:41.794Z,5.45
2022-11-05T11:08:25.488Z,6.57
2022-11-05T11:11:03.252Z,2.80
2022-11-05T11:13:51.473Z,4.63
2022-11-05T11:16:26.814Z,2.35
2022-11-05T11:19:03.105Z,4.28
2022-11-05T11:21:37.970Z,2.92
2022-11-05T11:24:23.279Z,2.45
2022-11-05T11:27:03.010Z,2.33
2022-11-05T11:29:42.879Z,4.68
2022-11-05T11:32:22.250Z,3.38
2022-11-05T11:34:58.373Z,3.63
2022-11-05T11:37:34.570Z,2.05
2022-11-05T11:40:17.095Z,2.65
2022-11-05T11:42:54.374Z,2.58
2022-11-05T11:45:32.790Z,3.33
2022-11-05T11:48:07.822Z,1.73
2022-11-05T11:50:43.653Z,2.08
2022-11-05T11:53:35.746Z,3.72
2022-11-05T11:56:18.112Z,2.57
2022-11-05T11:58:52.889Z,0.68
2022-11-05T12:02:00.324Z,1.38
2022-11-05T12:04:50.865Z,7.53
2022-11-05T12:07:35.225Z,3.17
2022-11-05T12:10:23.242Z,2.25
2022-11-05T12:13:15.908Z,1.65
2022-11-05T12:15:52.724Z,0.90
2022-11-05T12:18:36.393Z,1.55
2022-11-05T12:21:34.602Z,1.63
2022-11-05T12:24:46.986Z,1.85
2022-11-05T12:27:33.539Z,3.28
2022-11-05T12:30:14.933Z,2.38
2022-11-05T12:33:08.508Z,2.42
2022-11-05T12:35:57.457Z,10.20
2022-11-05T12:38:52.760Z,8.30
2022-11-05T12:41:30.960Z,6.05
2022-11-05T12:44:23.999Z,3.50
2022-11-05T12:49:51.419Z,2.97
2022-11-05T12:52:44.360Z,4.70
2022-11-05T12:57:55.612Z,1.45
2022-11-05T13:00:30.222Z,1.95
2022-11-05T13:03:25.023Z,1.35
2022-11-05T13:06:06.434Z,1.17
2022-11-05T13:08:45.795Z,1.48
2022-11-05T13:11:25.926Z,2.00
2022-11-05T13:14:09.669Z,3.17
2022-11-05T13:16:47.148Z,1.65
2022-11-05T13:19:25.776Z,3.33
2022-11-05T13:22:07.998Z,14.07
2022-11-05T13:24:48.190Z,1.05
2022-11-05T13:27:40.479Z,4.30
2022-11-05T13:30:17.846Z,4.32
2022-11-05T13:32:57.211Z,1.73
2022-11-05T13:35:37.151Z,1.63
2022-11-05T13:38:35.553Z,2.40
2022-11-05T13:41:22.663Z,1.60
2022-11-05T13:44:21.504Z,1.33
2022-11-05T13:47:14.115Z,5.00
2022-11-05T13:50:26.810Z,3.47
2022-11-05T13:53:23.482Z,2.57
2022-11-05T13:56:04.365Z,1.02
2022-11-05T13:59:02.591Z,1.80
2022-11-05T14:01:45.615Z,2.65
2022-11-05T14:04:32.177Z,3.08
2022-11-05T14:07:12.398Z,0.85
2022-11-05T14:09:48.593Z,1.58
2022-11-05T14:12:26.809Z,4.07
2022-11-05T14:15:08.779Z,3.22
2022-11-05T14:17:57.188Z,4.87
2022-11-05T14:21:00.359Z,2.70
2022-11-05T14:26:17.130Z,2.05
2022-11-05T14:29:10.237Z,3.72
2022-11-05T14:32:11.545Z,3.20
2022-11-05T14:34:48.621Z,3.08
2022-11-05T14:37:33.522Z,4.95
2022-11-05T14:40:36.291Z,4.30
2022-11-05T14:43:20.972Z,5.75
2022-11-05T14:45:57.374Z,2.95
2022-11-05T14:48:40.372Z,3.15
2022-11-05T14:51:29.608Z,3.67
2022-11-05T14:54:05.619Z,3.65
2022-11-05T14:56:51.783Z,6.20
2022-11-05T15:00:03.335Z,2.47
2022-11-05T15:02:39.078Z,2.40
2022-11-05T15:05:49.798Z,2.40
2022-11-05T15:08:32.154Z,3.20
2022-11-05T15:11:14.527Z,3.65
2022-11-05T15:13:58.720Z,2.00
2022-11-05T15:16:37.082Z,3.78
2022-11-05T15:19:18.931Z,3.67
2022-11-05T15:21:54.288Z,3.33
2022-11-05T15:24:29.252Z,2.63
2022-11-05T15:27:08.556Z,4.00
2022-11-05T15:29:43.036Z,5.68
2022-11-05T15:32:20.230Z,11.88
2022-11-05T15:34:55.374Z,9.13
2022-11-05T15:37:28.888Z,15.98
2022-11-05T15:40:02.281Z,38.22
2022-11-05T15:42:35.589Z,22.42
2022-11-05T15:45:21.067Z,12.00
2022-11-05T15:47:55.737Z,10.48
2022-11-05T15:50:29.359Z,22.27
2022-11-05T15:53:41.615Z,56.85
2022-11-05T15:56:12.852Z,34.95
2022-11-05T15:58:50.094Z,22.33
2022-11-05T16:01:28.057Z,26.77
2022-11-05T16:04:09.784Z,18.48
2022-11-05T16:06:46.075Z,10.77
2022-11-05T16:09:24.782Z,45.30
2022-11-05T16:12:14.095Z,21.85
2022-11-05T16:14:58.766Z,17.23
2022-11-05T16:17:34.684Z,18.70
2022-11-05T16:20:22.672Z,18.25
2022-11-05T16:22:58.354Z,23.42
2022-11-05T16:25:37.644Z,36.00
2022-11-05T16:28:23.206Z,51.20
2022-11-05T16:30:57.768Z,12.60
2022-11-05T16:33:35.344Z,12.40
2022-11-05T16:36:10.936Z,10.73
2022-11-05T16:38:44.430Z,8.43
2022-11-05T16:41:19.014Z,17.42
2022-11-05T16:43:54.155Z,12.52
2022-11-05T16:46:29.684Z,25.17
2022-11-05T16:49:02.954Z,31.95
2022-11-05T16:51:37.572Z,21.30
2022-11-05T16:54:11.197Z,15.93
2022-11-05T16:56:46.998Z,14.32
2022-11-05T16:59:20.296Z,57.92
2022-11-05T17:01:55.974Z,34.70
2022-11-05T17:04:29.512Z,63.30
2022-11-05T17:07:04.223Z,28.58
2022-11-05T17:09:37.572Z,22.95
2022-11-05T17:12:11.034Z,18.83
2022-11-05T17:14:44.405Z,15.95
2022-11-05T17:17:17.738Z,15.20
2022-11-05T17:19:51.014Z,37.28
2022-11-05T17:22:25.648Z,35.92
2022-11-05T17:24:58.932Z,11.88
2022-11-05T17:27:32.194Z,15.70
2022-11-05T17:30:06.451Z,21.38
2022-11-05T17:32:39.752Z,12.93
2022-11-05T17:35:13.742Z,14.05
2022-11-05T17:37:48.753Z,7.90
2022-11-05T17:40:23.865Z,8.32
2022-11-05T17:42:57.185Z,8.60
2022-11-05T17:45:30.990Z,6.45
2022-11-05T17:48:05.100Z,6.13
2022-11-05T17:50:41.794Z,4.38
2022-11-05T17:53:17.763Z,8.43
2022-11-05T17:55:51.054Z,6.78
2022-11-05T17:58:24.322Z,20.48
2022-11-05T18:00:57.686Z,17.67
2022-11-05T18:03:31.009Z,14.82
2022-11-05T18:06:05.263Z,20.75
2022-11-05T18:08:39.976Z,13.98
2022-11-05T18:11:13.787Z,12.73
2022-11-05T18:13:47.588Z,12.90
2022-11-05T18:16:20.900Z,12.77
2022-11-05T18:18:54.204Z,9.13
2022-11-05T18:21:27.564Z,5.28
2022-11-05T18:24:05.024Z,8.55
2022-11-05T18:26:38.291Z,14.57
2022-11-05T18:29:11.558Z,25.05
2022-11-05T18:31:44.869Z,10.23
2022-11-05T18:34:18.208Z,11.88
2022-11-05T18:36:56.145Z,14.77
2022-11-05T18:39:31.340Z,38.55
2022-11-05T18:42:04.776Z,21.95
2022-11-05T18:44:39.544Z,44.97
2022-11-05T18:47:13.289Z,22.38
2022-11-05T18:49:46.622Z,8.45
2022-11-05T18:52:19.914Z,17.42
2022-11-05T18:54:54.856Z,12.68
2022-11-05T18:57:28.377Z,12.25
2022-11-05T19:00:01.712Z,14.73
2022-11-05T19:02:35.044Z,6.82
2022-11-05T19:08:02.554Z,10.40
2022-11-05T19:10:40.279Z,9.85
2022-11-05T19:13:14.107Z,9.52
2022-11-05T19:15:47.396Z,9.10
2022-11-05T19:18:20.705Z,12.75
2022-11-05T19:20:54.010Z,9.43
2022-11-05T19:23:27.352Z,17.33
2022-11-05T19:26:05.577Z,20.58
2022-11-05T19:28:38.992Z,13.38
2022-11-05T19:31:15.205Z,10.45
2022-11-05T19:33:50.415Z,7.38
2022-11-05T19:36:25.347Z,7.43
2022-11-05T19:39:00.759Z,4.68
2022-11-05T19:41:35.586Z,10.85
2022-11-05T19:44:09.265Z,35.40
2022-11-05T19:46:43.983Z,29.27
2022-11-05T19:49:17.361Z,17.55
2022-11-05T19:51:51.068Z,35.03
2022-11-05T19:54:24.448Z,44.40
2022-11-05T19:56:59.805Z,34.22
2022-11-05T19:59:33.339Z,15.93
2022-11-05T20:02:09.525Z,12.07
2022-11-05T20:04:46.795Z,10.50
2022-11-05T20:07:20.448Z,11.63
2022-11-05T20:09:53.806Z,9.27
2022-11-05T20:12:28.485Z,13.02
2022-11-05T20:15:01.772Z,5.85
2022-11-05T20:17:35.063Z,8.85
2022-11-05T20:20:09.560Z,16.85
2022-11-05T20:22:43.482Z,18.20
2022-11-05T20:25:16.929Z,18.67
2022-11-05T20:27:51.663Z,22.98
2022-11-05T20:30:24.992Z,13.90
2022-11-05T20:32:58.999Z,15.98
2022-11-05T20:35:32.270Z,7.00
2022-11-05T20:38:05.664Z,23.00
2022-11-05T20:40:40.953Z,16.63
2022-11-05T20:43:15.599Z,13.70
2022-11-05T20:45:48.899Z,12.15
2022-11-05T20:48:22.183Z,22.52
2022-11-05T20:50:55.428Z,14.40
2022-11-05T20:53:28.750Z,9.70
2022-11-05T20:56:07.486Z,14.13
2022-11-05T20:58:42.558Z,10.30
2022-11-05T21:01:16.835Z,11.50
2022-11-05T21:03:50.240Z,7.13
2022-11-05T21:06:23.966Z,6.55
2022-11-05T21:08:57.325Z,8.45
2022-11-05T21:11:50.680Z,6.38
2022-11-05T21:14:25.326Z,10.20
2022-11-05T21:16:58.588Z,5.28
2022-11-05T21:19:32.794Z,9.38
2022-11-05T21:22:07.395Z,9.50
2022-11-05T21:24:40.639Z,9.20
2022-11-05T21:27:13.895Z,8.75
2022-11-05T21:29:48.495Z,7.78
2022-11-05T21:32:21.766Z,10.43
2022-11-05T21:34:55.007Z,11.73
2022-11-05T21:37:28.778Z,9.55
2022-11-05T21:40:02.184Z,16.20
2022-11-05T21:42:35.489Z,23.58
2022-11-05T21:45:11.173Z,22.60
2022-11-05T21:47:44.441Z,26.90
2022-11-05T21:50:21.754Z,20.85
2022-11-05T21:53:12.628Z,19.75
2022-11-05T21:56:08.651Z,16.00
2022-11-05T21:58:59.488Z,14.30
2022-11-05T22:01:37.033Z,5.90
2022-11-05T22:04:10.501Z,5.40
2022-11-05T22:06:43.838Z,8.45
2022-11-05T22:09:17.254Z,6.93
2022-11-05T22:11:50.679Z,7.55
2022-11-05T22:14:24.869Z,10.05
2022-11-05T22:16:59.796Z,20.55
2022-11-05T22:19:34.377Z,32.25
2022-11-05T22:22:08.249Z,13.98
2022-11-05T22:24:42.740Z,16.25
2022-11-05T22:27:18.868Z,13.40
2022-11-05T22:29:52.452Z,4.43
2022-11-05T22:32:27.281Z,9.60
2022-11-05T22:35:01.166Z,5.20
2022-11-05T22:37:34.592Z,6.82
2022-11-05T22:40:08.834Z,4.55
2022-11-05T22:42:42.158Z,8.10
2022-11-05T22:45:15.629Z,8.88
2022-11-05T22:47:50.255Z,10.45
2022-11-05T22:50:23.875Z,13.50
2022-11-05T22:52:57.117Z,14.15
2022-11-05T22:55:30.577Z,12.60
2022-11-05T22:58:03.821Z,14.70
2022-11-05T23:00:38.604Z,16.23
2022-11-05T23:03:13.269Z,9.93
2022-11-05T23:05:46.854Z,6.90
2022-11-05T23:08:37.432Z,7.85
2022-11-05T23:11:34.147Z,11.40
2022-11-05T23:14:08.826Z,6.45
2022-11-05T23:17:00.002Z,7.80
2022-11-05T23:19:52.418Z,9.43
2022-11-05T23:22:45.838Z,9.93
2022-11-05T23:25:22.282Z,7.38
2022-11-05T23:27:55.968Z,7.47
2022-11-05T23:30:29.977Z,5.80
2022-11-05T23:33:02.356Z,6.07
2022-11-05T23:38:36.584Z,7.25
2022-11-05T23:41:26.987Z,4.32
2022-11-05T23:44:17.755Z,6.30
2022-11-05T23:47:08.123Z,5.70
2022-11-05T23:49:41.711Z,6.10
2022-11-05T23:52:16.324Z,22.80
2022-11-05T23:54:49.954Z,35.63
2022-11-05T23:57:23.183Z,18.88
2022-11-05T23:59:56.447Z,67.20
